Time;durP1;ratioP1;P1;durP2;ratioP2;P2;SDS_P1;SDS_P2;PMS_P1;PMS_P2;Temp;Humidity;BMP_temperature;BMP_pressure;BME280_temperature;BME280_humidity;BME280_pressure;Samples;Min_cycle;Max_cycle;Signal;HPM_P1;HPM_P2
2022/07/20 00:01:43;167677.00;0.56;290.27;0.00;0.00;0.62;;;;;27.40;1.00;;;;;;2264154;61;1338;-85
2022/07/20 00:04:16;103700.00;0.35;179.96;0.00;0.00;0.62;;;;;27.40;1.00;;;;;;2264141;61;1120;-85
2022/07/20 00:12:12;344122.00;1.15;593.76;133394.00;0.44;231.18;;;;;27.20;1.00;;;;;;2260178;61;1452;-85
2022/07/20 00:14:43;236302.00;0.79;408.39;12321.00;0.04;21.97;;;;;27.20;1.00;;;;;;2260105;61;1062;-84
2022/07/20 00:17:10;3341.00;0.01;6.41;0.00;0.00;0.62;;;;;27.30;1.00;;;;;;2269413;56;3605;-84
2022/07/20 00:19:40;416533.00;1.39;718.23;33984.00;0.11;59.48;;;;;27.20;1.00;;;;;;2264031;61;1649;-84
2022/07/20 00:22:12;210859.00;0.70;364.61;0.00;0.00;0.62;;;;;27.10;1.00;;;;;;2282293;40;3646;-83
2022/07/20 00:24:45;235877.00;0.79;407.66;29339.00;0.10;51.44;;;;;27.00;1.00;;;;;;2263760;61;1528;-83
2022/07/20 00:34:59;2881814.00;9.61;5620.16;244586.00;0.82;422.64;;;;;26.50;1.00;;;;;;2253565;61;1427;-84
2022/07/20 00:39:55;2036667.00;6.79;3699.89;106409.00;0.35;184.63;;;;;26.50;1.00;;;;;;2253534;61;1405;-86
2022/07/20 00:42:31;1708151.00;5.69;3041.27;170991.00;0.57;295.97;;;;;26.30;1.00;;;;;;2251881;61;1889;-84
2022/07/20 00:45:03;936311.00;3.12;1619.99;108609.00;0.36;188.43;;;;;26.10;1.00;;;;;;2252054;61;2171;-87
2022/07/20 00:47:30;878161.00;2.93;1517.80;0.00;0.00;0.62;;;;;26.00;1.00;;;;;;2252091;61;1476;-84
2022/07/20 00:50:03;969063.00;3.23;1677.75;745.00;0.00;1.91;;;;;26.20;1.00;;;;;;2251933;61;1160;-85
2022/07/20 00:52:33;897894.00;2.99;1552.42;210210.00;0.70;363.50;;;;;26.10;1.00;;;;;;2290049;41;3760;-86
2022/07/20 00:55:01;252563.00;0.84;436.36;0.00;0.00;0.62;;;;;26.10;1.00;;;;;;2263998;61;1639;-85
2022/07/20 00:57:29;206782.00;0.69;357.60;0.00;0.00;0.62;;;;;26.00;1.00;;;;;;2263860;61;1920;-83
2022/07/20 00:59:57;201000.00;0.67;347.65;71514.00;0.24;124.38;;;;;26.20;1.00;;;;;;2264062;61;1437;-84
2022/07/20 01:02:29;600108.00;2.00;1034.41;15711.00;0.05;27.84;;;;;26.10;1.00;;;;;;2270738;56;3817;-86
2022/07/20 01:04:58;352280.00;1.17;607.78;37022.00;0.12;64.74;;;;;26.10;1.00;;;;;;2263820;61;1863;-83
2022/07/20 01:07:25;206109.00;0.69;356.44;0.00;0.00;0.62;;;;;26.20;1.00;;;;;;2264067;61;1101;-84
2022/07/20 01:09:54;131752.00;0.44;228.35;0.00;0.00;0.62;;;;;26.10;1.00;;;;;;2264013;61;1141;-84
2022/07/20 01:14:55;1064682.00;3.55;1847.38;0.00;0.00;0.62;;;;;25.80;1.00;;;;;;2261958;61;1365;-83
2022/07/20 01:19:52;1119713.00;3.73;1945.71;0.00;0.00;0.62;;;;;25.70;1.00;;;;;;2280017;56;3683;-83
2022/07/20 01:22:23;314709.00;1.05;543.20;18979.00;0.06;33.50;;;;;25.60;1.00;;;;;;2263932;61;1448;-84
2022/07/20 01:24:51;295074.00;0.98;509.45;0.00;0.00;0.62;;;;;25.60;1.00;;;;;;2263830;61;1640;-84
2022/07/20 01:27:24;721385.00;2.40;1244.34;126700.00;0.42;219.64;;;;;25.50;1.00;;;;;;2267837;56;3790;-85
2022/07/20 01:29:51;258928.00;0.86;447.31;44930.00;0.15;78.42;;;;;25.50;1.00;;;;;;2263894;61;1623;-85
2022/07/20 01:34:52;1290760.00;4.30;2255.20;17502.00;0.06;30.94;;;;;25.60;1.00;;;;;;2253732;61;1354;-88
2022/07/20 01:37:22;292661.00;0.98;505.30;60323.00;0.20;105.04;;;;;25.60;1.00;;;;;;2269613;40;3486;-88
2022/07/20 01:42:21;732478.00;2.44;1263.61;11225.00;0.04;20.07;;;;;25.50;1.00;;;;;;2257964;61;1393;-83
2022/07/20 01:49:50;1497201.00;4.99;2637.85;119888.00;0.40;207.89;;;;;25.30;1.00;;;;;;2258671;61;1192;-88
2022/07/20 01:52:17;183995.00;0.61;318.37;0.00;0.00;0.62;;;;;25.50;1.00;;;;;;2255816;61;1361;-85
2022/07/20 01:57:32;736550.00;2.46;1270.68;0.00;0.00;0.62;;;;;24.90;1.00;;;;;;2264322;56;3650;-87
2022/07/20 01:59:59;1145410.00;3.82;1991.83;0.00;0.00;0.62;;;;;24.90;1.00;;;;;;2276756;40;3674;-84
2022/07/20 02:02:30;245143.00;0.82;423.60;0.00;0.00;0.62;;;;;24.90;1.00;;;;;;2263751;61;1419;-84
2022/07/20 02:05:00;513353.00;1.71;884.82;125656.00;0.42;217.84;;;;;25.00;1.00;;;;;;2264333;61;1676;-87
2022/07/20 02:10:15;227452.00;0.76;393.17;0.00;0.00;0.62;;;;;25.20;1.00;;;;;;2264553;61;1405;-87
2022/07/20 02:12:43;250351.00;0.83;432.55;0.00;0.00;0.62;;;;;25.10;1.00;;;;;;2264469;61;1710;-85
2022/07/20 02:16:14;233416.00;0.78;403.43;25794.00;0.09;45.30;;;;;25.00;1.00;;;;;;2264562;61;1184;-88
2022/07/20 02:18:07;264113.00;0.88;456.22;62406.00;0.21;108.64;;;;;25.10;1.00;;;;;;2266933;40;3556;-86
2022/07/20 02:20:35;956509.00;3.19;1655.59;84661.00;0.28;147.09;;;;;25.10;1.00;;;;;;2264080;40;3653;-87
2022/07/20 02:23:07;464775.00;1.55;801.20;66488.00;0.22;115.69;;;;;25.00;1.00;;;;;;2264473;61;1527;-87
2022/07/20 02:25:38;887838.00;2.96;1534.77;134153.00;0.45;232.49;;;;;24.90;1.00;;;;;;2271496;56;3768;-88
2022/07/20 02:28:12;898060.00;2.99;1552.71;112615.00;0.38;195.34;;;;;24.70;1.00;;;;;;2264611;61;1024;-88
2022/07/20 02:33:17;2535572.00;8.45;4788.29;370144.00;1.23;638.48;;;;;24.80;1.00;;;;;;2275067;56;1689;-87
2022/07/20 02:35:44;1583994.00;5.28;2802.19;45780.00;0.15;79.89;;;;;24.80;1.00;;;;;;2264626;61;1018;-87
2022/07/20 02:40:39;2069824.00;6.90;3768.70;155297.00;0.52;268.94;;;;;24.70;1.00;;;;;;2262088;61;1330;-87
2022/07/20 02:43:08;1175412.00;3.92;2045.83;82918.00;0.28;144.08;;;;;24.90;1.00;;;;;;2260454;61;1427;-86
2022/07/20 02:45:39;1155201.00;3.85;2009.43;163425.00;0.54;282.94;;;;;24.80;1.00;;;;;;2260445;61;1513;-85
2022/07/20 02:48:13;1063717.00;3.55;1845.66;115338.00;0.38;200.04;;;;;25.00;1.00;;;;;;2260300;61;1403;-85
2022/07/20 02:50:46;1031970.00;3.44;1789.18;46688.00;0.16;81.46;;;;;24.90;1.00;;;;;;2260387;61;1450;-85
2022/07/20 02:53:15;1212989.00;4.04;2113.72;152120.00;0.51;263.46;;;;;24.90;1.00;;;;;;2300000;41;3721;-87
2022/07/20 02:55:45;1324010.00;4.41;2316.11;217689.00;0.73;376.37;;;;;24.90;1.00;;;;;;2264366;61;1561;-86
2022/07/20 02:58:16;808471.00;2.69;1395.90;38517.00;0.13;67.32;;;;;25.00;1.00;;;;;;2264344;61;1997;-84
2022/07/20 03:00:44;829802.00;2.77;1433.15;86139.00;0.29;149.64;;;;;25.00;1.00;;;;;;2264475;61;1621;-85
2022/07/20 03:03:12;800385.00;2.67;1381.80;4150.00;0.01;7.81;;;;;25.10;1.00;;;;;;2264398;61;1596;-86
2022/07/20 03:05:43;1026804.00;3.42;1780.00;29341.00;0.10;51.44;;;;;25.00;1.00;;;;;;2264404;61;1040;-87
2022/07/20 03:08:10;669912.00;2.23;1155.10;30593.00;0.10;53.61;;;;;25.00;1.00;;;;;;2264386;61;1644;-85
2022/07/20 03:10:38;667666.00;2.23;1151.21;106114.00;0.35;184.12;;;;;24.80;1.00;;;;;;2266371;56;3834;-84
2022/07/20 03:13:06;1148912.00;3.83;1998.12;0.00;0.00;0.62;;;;;24.70;1.00;;;;;;2263938;61;2002;-86
2022/07/20 03:15:34;555948.00;1.85;958.21;4520.00;0.02;8.45;;;;;24.60;1.00;;;;;;2264365;61;1639;-86
2022/07/20 03:18:04;291690.00;0.97;503.63;27903.00;0.09;48.95;;;;;24.20;1.00;;;;;;2264320;61;1919;-85
2022/07/20 03:20:36;219458.00;0.73;379.41;0.00;0.00;0.62;;;;;24.00;1.00;;;;;;2264282;61;1641;-83
2022/07/20 03:23:04;190151.00;0.63;328.97;0.00;0.00;0.62;;;;;23.80;1.00;;;;;;2264172;61;1608;-85
2022/07/20 03:25:32;224326.00;0.75;387.79;0.00;0.00;0.62;;;;;23.40;1.00;;;;;;2264371;61;1456;-87
2022/07/20 03:28:01;620598.00;2.07;1069.80;68980.00;0.23;120.00;;;;;23.50;1.00;;;;;;2264203;61;1435;-85
2022/07/20 03:30:29;240319.00;0.80;415.30;0.00;0.00;0.62;;;;;23.80;1.00;;;;;;2264372;61;1404;-85
2022/07/20 03:32:59;543351.00;1.81;936.50;13118.00;0.04;23.35;;;;;23.80;1.00;;;;;;2264203;61;1570;-85
2022/07/20 03:35:32;256116.00;0.85;442.47;74570.00;0.25;129.66;;;;;24.20;1.00;;;;;;2264379;61;1166;-85
2022/07/20 03:37:59;205942.00;0.69;356.15;17420.00;0.06;30.80;;;;;24.40;1.00;;;;;;2264213;61;1928;-83
2022/07/20 03:40:26;289408.00;0.96;499.71;0.00;0.00;0.62;;;;;24.80;1.00;;;;;;2264173;61;1680;-85
2022/07/20 03:42:56;117782760.00;392.61;66187728.00;0.00;0.00;0.62;;;;;24.90;1.00;;;;;;2264053;61;1738;-85
2022/07/20 03:45:23;340435.00;1.13;587.42;4225.00;0.01;7.94;;;;;24.80;1.00;;;;;;2264311;61;1033;-85
2022/07/20 03:47:54;298841.00;1.00;515.93;0.00;0.00;0.62;;;;;24.70;1.00;;;;;;2264348;61;1477;-87
2022/07/20 03:50:23;280780.00;0.94;484.88;0.00;0.00;0.62;;;;;24.70;1.00;;;;;;2264209;61;1735;-86
2022/07/20 03:52:50;346545.00;1.16;597.92;30234.00;0.10;52.99;;;;;24.50;1.00;;;;;;2264172;61;1354;-86
2022/07/20 03:55:19;195383.00;0.65;337.98;0.00;0.00;0.62;;;;;24.60;1.00;;;;;;2264121;61;1475;-84
2022/07/20 03:57:46;151961.00;0.51;263.19;0.00;0.00;0.62;;;;;24.60;1.00;;;;;;2264120;61;2120;-85
2022/07/20 04:00:16;181170.00;0.60;313.50;238.00;0.00;1.03;;;;;24.60;1.00;;;;;;2264132;61;1426;-85
2022/07/20 04:02:44;209959.00;0.70;363.06;0.00;0.00;0.62;;;;;24.60;1.00;;;;;;2264018;61;1609;-85
2022/07/20 04:05:11;216510.00;0.72;374.34;0.00;0.00;0.62;;;;;24.50;1.00;;;;;;2264176;61;1485;-85
2022/07/20 04:07:44;140584.00;0.47;243.58;0.00;0.00;0.62;;;;;24.40;1.00;;;;;;2264224;61;1465;-88
2022/07/20 04:10:12;393528.00;1.31;678.68;87657.00;0.29;152.26;;;;;24.30;1.00;;;;;;2264093;61;1137;-86
2022/07/20 04:12:39;184938.00;0.62;319.99;0.00;0.00;0.62;;;;;24.20;1.00;;;;;;2264210;61;1430;-85
2022/07/20 04:15:07;140447.00;0.47;243.34;0.00;0.00;0.62;;;;;24.10;1.00;;;;;;2264202;61;1565;-85
2022/07/20 04:17:34;360277.00;1.20;621.52;52093.00;0.17;90.81;;;;;24.10;1.00;;;;;;2269145;40;3614;-85
2022/07/20 04:20:01;146216.00;0.49;253.29;0.00;0.00;0.62;;;;;23.80;1.00;;;;;;2264170;61;1549;-89
2022/07/20 04:22:28;137371.00;0.46;238.04;0.00;0.00;0.62;;;;;23.50;1.00;;;;;;2264217;61;1485;-86
2022/07/20 04:24:56;523212.00;1.74;901.80;0.00;0.00;0.62;;;;;23.60;1.00;;;;;;2290649;41;3712;-85
2022/07/20 04:27:23;176425.00;0.59;305.33;0.00;0.00;0.62;;;;;23.60;1.00;;;;;;2264042;61;1183;-88
2022/07/20 04:29:50;197382.00;0.66;341.42;0.00;0.00;0.62;;;;;23.70;1.00;;;;;;2264087;61;1108;-87
2022/07/20 04:32:18;195865.00;0.65;338.81;3631.00;0.01;6.91;;;;;23.70;1.00;;;;;;2264004;61;1471;-87
2022/07/20 04:34:44;208382.00;0.69;360.35;59687.00;0.20;103.94;;;;;23.60;1.00;;;;;;2264093;61;1112;-85
2022/07/20 04:37:12;255061.00;0.85;440.65;32619.00;0.11;57.12;;;;;23.60;1.00;;;;;;2274000;40;3760;-85
2022/07/20 04:39:39;270686.00;0.90;467.52;50329.00;0.17;87.76;;;;;23.60;1.00;;;;;;2265363;55;3828;-87
2022/07/20 04:44:37;630035.00;2.10;1086.11;0.00;0.00;0.62;;;;;23.40;1.00;;;;;;2265232;40;3549;-84
2022/07/20 04:47:04;312766.00;1.04;539.86;0.00;0.00;0.62;;;;;23.50;1.00;;;;;;2264178;61;1016;-88
2022/07/20 04:49:31;150934.00;0.50;261.42;0.00;0.00;0.62;;;;;23.70;1.00;;;;;;2264236;61;982;-89
2022/07/20 04:52:00;438873.00;1.46;756.64;44846.00;0.15;78.27;;;;;23.80;1.00;;;;;;2263969;61;1410;-85
2022/07/20 04:54:28;203540.00;0.68;352.02;0.00;0.00;0.62;;;;;23.90;1.00;;;;;;2264122;61;1116;-87
2022/07/20 04:56:55;262959.00;0.88;454.24;86099.00;0.29;149.57;;;;;24.10;1.00;;;;;;2263982;61;2251;-83
2022/07/20 04:59:22;235941.00;0.79;407.77;0.00;0.00;0.62;;;;;24.30;1.00;;;;;;2264147;61;2501;-85
2022/07/20 05:01:51;212944.00;0.71;368.20;0.00;0.00;0.62;;;;;24.40;1.00;;;;;;2264150;61;1511;-84
2022/07/20 05:04:17;203733.00;0.68;352.35;0.00;0.00;0.62;;;;;24.50;1.00;;;;;;2264150;61;1432;-85
2022/07/20 05:06:44;22007.00;0.07;38.75;0.00;0.00;0.62;;;;;24.90;1.00;;;;;;2264020;61;1553;-83
2022/07/20 05:09:11;333981.00;1.11;576.33;8123.00;0.03;14.70;;;;;24.80;1.00;;;;;;2264044;61;1096;-84
2022/07/20 05:11:46;1112873.00;3.71;1933.46;107511.00;0.36;186.53;;;;;24.70;1.00;;;;;;2263932;61;1578;-86
2022/07/20 05:14:13;1606577.00;5.36;2845.31;123266.00;0.41;213.72;;;;;24.70;1.00;;;;;;2264030;61;1622;-87
2022/07/20 05:16:40;1570865.00;5.24;2777.19;91646.00;0.31;159.15;;;;;24.70;1.00;;;;;;2264111;61;1104;-86
2022/07/20 05:19:09;1683563.00;5.61;2993.53;155054.00;0.52;268.52;;;;;24.60;1.00;;;;;;2264068;61;1936;-86
2022/07/20 05:21:37;731131.00;2.44;1261.27;123617.00;0.41;214.32;;;;;24.70;1.00;;;;;;2264003;61;1325;-84
2022/07/20 05:24:04;446863.00;1.49;770.39;61637.00;0.21;107.31;;;;;24.50;1.00;;;;;;2264046;61;1148;-87
2022/07/20 05:26:31;336087.00;1.12;579.95;126003.00;0.42;218.44;;;;;24.60;1.00;;;;;;2263955;61;2023;-85
2022/07/20 05:28:58;403741.00;1.35;696.24;69596.00;0.23;121.06;;;;;24.80;1.00;;;;;;2263786;61;1109;-86
2022/07/20 05:31:25;399073.00;1.33;688.21;54885.00;0.18;95.63;;;;;24.90;1.00;;;;;;2263756;61;1452;-86
2022/07/20 05:33:52;310764.00;1.04;536.42;11088.00;0.04;19.83;;;;;25.10;1.00;;;;;;2263861;61;1398;-87
2022/07/20 05:36:21;116658.00;0.39;202.32;0.00;0.00;0.62;;;;;25.40;1.00;;;;;;2264053;61;1146;-88
2022/07/20 05:38:49;238621.00;0.80;412.38;0.00;0.00;0.62;;;;;25.60;1.00;;;;;;2264721;61;2029;-86
2022/07/20 05:41:16;375406.00;1.25;647.53;48294.00;0.16;84.24;;;;;25.90;1.00;;;;;;2264621;61;1384;-87
2022/07/20 05:43:43;21520.00;0.07;37.90;0.00;0.00;0.62;;;;;26.50;1.00;;;;;;2264680;61;1214;-87
2022/07/20 05:46:10;120909.00;0.40;209.65;0.00;0.00;0.62;;;;;26.50;1.00;;;;;;2264703;61;1431;-87
2022/07/20 05:48:37;25490.00;0.08;44.78;0.00;0.00;0.62;;;;;27.70;1.00;;;;;;2264794;61;1243;-89
2022/07/20 05:51:08;149187.00;0.50;258.41;0.00;0.00;0.62;;;;;29.40;1.00;;;;;;2264649;61;1581;-86
2022/07/20 05:53:37;172015.00;0.57;297.74;0.00;0.00;0.62;;;;;31.20;1.00;;;;;;2264646;61;1579;-87
2022/07/20 05:56:05;291037.00;0.97;502.51;0.00;0.00;0.62;;;;;32.60;1.00;;;;;;2264540;61;1493;-87
2022/07/20 05:58:33;239247.00;0.80;413.46;33206.00;0.11;58.13;;;;;33.70;1.00;;;;;;2264602;61;1936;-86
2022/07/20 06:01:00;287623.00;0.96;496.64;67941.00;0.23;118.20;;;;;34.50;1.00;;;;;;2264488;61;1394;-84
2022/07/20 06:03:27;155574.00;0.52;269.41;0.00;0.00;0.62;;;;;35.30;1.00;;;;;;2264566;61;1565;-86
2022/07/20 06:05:54;210400.00;0.70;363.82;0.00;0.00;0.62;;;;;36.30;1.00;;;;;;2264536;61;1084;-86
2022/07/20 06:08:23;191433.00;0.64;331.18;68853.00;0.23;119.78;;;;;37.00;1.00;;;;;;2264722;61;1395;-86
2022/07/20 06:10:52;382672.00;1.28;660.02;61537.00;0.21;107.13;;;;;37.50;1.00;;;;;;2264155;61;1639;-87
2022/07/20 06:13:19;185309.00;0.62;320.63;0.00;0.00;0.62;;;;;38.10;1.00;;;;;;2264289;61;1282;-85
2022/07/20 06:15:46;68384.00;0.23;118.97;0.00;0.00;0.62;;;;;37.90;1.00;;;;;;2264435;61;1067;-85
2022/07/20 06:18:13;23206.00;0.08;40.82;0.00;0.00;0.62;;;;;38.70;1.00;;;;;;2264403;61;1996;-86
2022/07/20 06:20:41;194688.00;0.65;336.78;38416.00;0.13;67.15;;;;;39.20;1.00;;;;;;2264649;61;988;-86
2022/07/20 06:23:08;412358.00;1.37;711.05;5113.00;0.02;9.48;;;;;39.60;1.00;;;;;;2264204;61;1577;-86
2022/07/20 06:25:35;210805.00;0.70;364.52;52748.00;0.18;91.94;;;;;39.80;1.00;;;;;;2263586;61;1037;-87
2022/07/20 06:28:04;207116.00;0.69;358.17;57397.00;0.19;99.98;;;;;40.10;1.00;;;;;;2263993;61;1125;-86
2022/07/20 06:30:31;109846.00;0.37;190.56;0.00;0.00;0.62;;;;;39.60;1.00;;;;;;2263990;61;1049;-85
2022/07/20 06:32:58;260355.00;0.87;449.76;0.00;0.00;0.62;;;;;39.80;1.00;;;;;;2263975;61;1519;-86
2022/07/20 06:35:27;138885.00;0.46;240.65;0.00;0.00;0.62;;;;;39.80;1.00;;;;;;2263914;61;1127;-86
2022/07/20 06:37:56;410337.00;1.37;707.58;18383.00;0.06;32.47;;;;;39.40;1.00;;;;;;2263911;61;1993;-85
2022/07/20 06:40:23;168172.00;0.56;291.12;0.00;0.00;0.62;;;;;39.70;1.00;;;;;;2263658;61;1378;-86
2022/07/20 06:42:50;165685.00;0.55;286.83;0.00;0.00;0.62;;;;;39.50;1.00;;;;;;2263232;61;1378;-85
2022/07/20 06:45:21;454618.00;1.52;783.73;0.00;0.00;0.62;;;;;40.10;1.00;;;;;;2263472;61;1484;-86
2022/07/20 06:47:57;311097.00;1.04;537.00;57266.00;0.19;99.75;;;;;40.60;1.00;;;;;;2263725;61;1597;-86
2022/07/20 06:50:27;315041.00;1.05;543.77;53457.00;0.18;93.16;;;;;41.00;1.00;;;;;;2264308;61;1427;-88
2022/07/20 06:52:54;257663.00;0.86;445.13;55793.00;0.19;97.20;;;;;40.90;1.00;;;;;;2263995;61;1331;-85
2022/07/20 06:55:23;361043.00;1.20;622.84;60038.00;0.20;104.54;;;;;41.10;1.00;;;;;;2263302;61;1252;-85
2022/07/20 06:57:51;396614.00;1.32;683.98;63091.00;0.21;109.82;;;;;40.60;1.00;;;;;;2263633;61;1929;-85
2022/07/20 07:00:21;184183.00;0.61;318.69;49123.00;0.16;85.67;;;;;40.40;1.00;;;;;;2263598;61;1086;-85
2022/07/20 07:02:48;553952.00;1.85;954.77;165833.00;0.55;287.09;;;;;40.80;1.00;;;;;;2263910;61;1480;-85
2022/07/20 07:05:15;449342.00;1.50;774.65;52129.00;0.17;90.87;;;;;41.10;1.00;;;;;;2274439;40;3761;-87
2022/07/20 07:15:12;1374650.00;4.58;2409.39;51778.00;0.17;90.26;;;;;41.60;1.00;;;;;;2255212;61;1348;-89
2022/07/20 07:30:14;1333956.00;4.45;2334.38;4169.00;0.01;7.85;;;;;43.40;1.00;;;;;;2291449;40;3488;-86
2022/07/20 07:55:29;663333.00;2.21;1143.71;0.00;0.00;0.62;;;;;42.10;1.00;;;;;;2258396;61;1336;-91
2022/07/20 07:57:56;454092.00;1.51;782.82;107307.00;0.36;186.18;;;;;42.00;1.00;;;;;;2256956;61;2006;-89
2022/07/20 08:02:53;1012403.00;3.37;1754.45;24387.00;0.08;42.87;;;;;42.00;1.00;;;;;;2258641;61;1342;-90
2022/07/20 08:05:20;152592.00;0.51;264.27;0.00;0.00;0.62;;;;;42.20;1.00;;;;;;2257026;61;1101;-90
2022/07/20 08:07:48;206257.00;0.69;356.69;0.00;0.00;0.62;;;;;42.80;1.00;;;;;;2256805;61;1679;-87
2022/07/20 08:22:42;1176439.00;3.92;2047.68;0.00;0.00;0.62;;;;;42.90;1.00;;;;;;2354540;41;3468;-87
2022/07/20 08:40:17;1854958.00;6.18;3330.63;0.00;0.00;0.62;;;;;42.40;1.00;;;;;;2429538;40;3694;31
2022/07/20 10:38:28;1654298.00;5.51;2936.97;39764.00;0.13;69.48;;;;;39.90;1.00;;;;;;2254865;61;1946;-91
2022/07/20 10:45:54;2212063.00;7.37;4069.24;129729.00;0.43;224.86;;;;;39.70;1.00;;;;;;2255154;61;1007;-92
2022/07/20 10:58:51;1726490.00;5.75;3077.01;27601.00;0.09;48.43;;;;;39.40;1.00;;;;;;2451404;40;3747;31
2022/07/20 11:57:10;1328449.00;4.43;2324.27;157498.00;0.52;272.73;;;;;39.20;1.00;;;;;;2254469;61;1330;-88
2022/07/20 12:57:41;1129896.00;3.77;1963.97;117292.00;0.39;203.41;;;;;37.40;1.00;;;;;;2411480;56;3122;31
2022/07/20 13:10:16;2554105.00;8.51;4831.11;261229.00;0.87;451.26;;;;;36.60;1.00;;;;;;2254282;61;1054;-90
2022/07/20 14:03:54;1408121.00;4.69;2471.39;0.00;0.00;0.62;;;;;32.80;1.00;;;;;;2267799;40;3606;-85
2022/07/20 14:26:23;1048534.00;3.50;1818.62;0.00;0.00;0.62;;;;;35.00;1.00;;;;;;2285741;40;3487;-88
2022/07/20 15:32:17;1088077.00;3.63;1889.11;0.00;0.00;0.62;;;;;36.10;1.00;;;;;;2258629;61;1319;-90
2022/07/20 16:20:53;1340445.00;4.47;2346.32;0.00;0.00;0.62;;;;;36.40;1.00;;;;;;2428038;55;3527;31
2022/07/20 17:06:58;1426237.00;4.75;2505.07;0.00;0.00;0.62;;;;;31.40;1.00;;;;;;2262253;61;980;-91
2022/07/20 17:11:56;1381251.00;4.60;2421.60;56228.00;0.19;97.96;;;;;31.90;1.00;;;;;;2367092;56;3672;-85
2022/07/20 17:14:23;307136.00;1.02;530.19;0.00;0.00;0.62;;;;;32.00;1.00;;;;;;2264112;61;1097;-86
2022/07/20 17:16:52;334641.00;1.12;577.46;23945.00;0.08;42.10;;;;;32.10;1.00;;;;;;2264006;61;2390;-87
2022/07/20 17:19:24;0.00;0.00;0.62;0.00;0.00;0.62;;;;;32.20;1.00;;;;;;2264092;61;1909;-87
2022/07/20 17:21:53;220746.00;0.74;381.63;0.00;0.00;0.62;;;;;32.40;1.00;;;;;;2263937;61;1539;-85
2022/07/20 17:24:21;382098.00;1.27;659.03;172369.00;0.57;298.35;;;;;32.30;1.00;;;;;;2264095;61;1160;-85
2022/07/20 17:26:48;23500.00;0.08;41.33;0.00;0.00;0.62;;;;;32.30;1.00;;;;;;2264004;61;1125;-86
2022/07/20 17:29:15;466357.00;1.55;803.92;108945.00;0.36;189.01;;;;;32.10;1.00;;;;;;2264121;61;1071;-85
2022/07/20 17:31:42;137818.00;0.46;238.81;0.00;0.00;0.62;;;;;32.00;1.00;;;;;;2264092;61;1432;-86
2022/07/20 17:34:09;179805.00;0.60;311.15;34320.00;0.11;60.06;;;;;32.00;1.00;;;;;;2264536;61;1106;-85
2022/07/20 17:36:38;70862.00;0.24;123.25;0.00;0.00;0.62;;;;;32.10;1.00;;;;;;2264738;61;1181;-87
2022/07/20 17:39:08;96440.00;0.32;167.43;0.00;0.00;0.62;;;;;32.10;1.00;;;;;;2264691;61;1981;-87
2022/07/20 17:41:35;212275.00;0.71;367.05;0.00;0.00;0.62;;;;;32.00;1.00;;;;;;2264685;61;1636;-87
2022/07/20 17:44:03;24990.00;0.08;43.91;0.00;0.00;0.62;;;;;31.70;1.00;;;;;;2264685;61;1038;-86
2022/07/20 17:46:30;272210.00;0.91;470.14;12448.00;0.04;22.19;;;;;31.90;1.00;;;;;;2264747;61;1129;-85
2022/07/20 17:48:57;204716.00;0.68;354.04;0.00;0.00;0.62;;;;;31.40;1.00;;;;;;2264740;61;1007;-87
2022/07/20 17:51:24;191674.00;0.64;331.59;0.00;0.00;0.62;;;;;31.30;1.00;;;;;;2264728;61;1370;-88
2022/07/20 17:53:51;198157.00;0.66;342.75;61644.00;0.21;107.32;;;;;31.30;1.00;;;;;;2264683;61;1059;-86
2022/07/20 17:56:19;257868.00;0.86;445.48;0.00;0.00;0.62;;;;;31.00;1.00;;;;;;2264734;61;1161;-87
2022/07/20 17:58:47;151845.00;0.51;262.99;53307.00;0.18;92.90;;;;;30.10;1.00;;;;;;2264579;61;1992;-86
2022/07/20 18:08:46;1515327.00;5.05;2671.99;43532.00;0.15;76.00;;;;;27.00;1.00;;;;;;2134657;41;1288766;-84
2022/07/20 18:18:53;595151.00;1.98;1025.85;0.00;0.00;0.62;;;;;25.60;1.00;;;;;;2262811;61;1896;-86
2022/07/20 18:21:22;158182.00;0.53;273.91;0.00;0.00;0.62;;;;;25.40;1.00;;;;;;2269438;40;3609;-87
2022/07/20 18:23:49;36070.00;0.12;63.09;0.00;0.00;0.62;;;;;25.10;1.00;;;;;;2264458;61;2019;-88
2022/07/20 18:31:27;255273.00;0.85;441.02;8645.00;0.03;15.60;;;;;24.80;1.60;;;;;;754859;60;2622;-89
2022/07/20 18:36:31;1333970.00;4.45;2334.41;0.00;0.00;0.62;;;;;24.20;2.20;;;;;;2277853;41;3573;-87
2022/07/20 18:38:58;124924.00;0.42;216.58;0.00;0.00;0.62;;;;;24.10;2.50;;;;;;2263958;56;3779;-89
2022/07/20 18:43:58;1213673.00;4.05;2114.96;149.00;0.00;0.88;;;;;23.30;5.80;;;;;;2281674;41;3449;-90
2022/07/20 18:56:26;934790.00;3.12;1617.31;0.00;0.00;0.62;;;;;23.50;5.50;;;;;;2276810;40;3509;-89
2022/07/20 19:01:37;483925.00;1.61;834.15;0.00;0.00;0.62;;;;;23.80;4.50;;;;;;2267461;56;1918;-88
2022/07/20 19:04:04;490894.00;1.64;846.15;0.00;0.00;0.62;;;;;23.50;4.40;;;;;;2271680;56;3801;-87
2022/07/20 19:09:17;284910.00;0.95;491.98;0.00;0.00;0.62;;;;;23.30;7.50;;;;;;482801;56;3075;-88
2022/07/20 19:14:20;718825.00;2.40;1239.90;0.00;0.00;0.62;;;;;24.20;3.30;;;;;;2271466;40;3562;-88
2022/07/20 19:19:20;617150.00;2.06;1063.84;0.00;0.00;0.62;;;;;25.20;1.50;;;;;;2258522;61;1884;-87
2022/07/20 19:21:49;226928.00;0.76;392.26;0.00;0.00;0.62;;;;;25.50;1.00;;;;;;2260652;56;3804;-87
2022/07/20 19:24:20;143539.00;0.48;248.67;422.00;0.00;1.35;;;;;25.50;1.00;;;;;;2311769;41;3673;-90
2022/07/20 19:34:31;411700.00;1.37;709.92;0.00;0.00;0.62;;;;;25.00;2.90;;;;;;2283636;40;3468;-88
2022/07/20 19:37:01;381209.00;1.27;657.50;0.00;0.00;0.62;;;;;24.70;2.60;;;;;;2272399;41;3578;-92
2022/07/20 19:41:59;737754.00;2.46;1272.77;0.00;0.00;0.62;;;;;24.90;1.70;;;;;;2261764;61;1320;-88
2022/07/20 19:44:27;1000959.00;3.34;1734.17;21900.00;0.07;38.56;;;;;25.00;4.00;;;;;;2266224;40;3696;-88
2022/07/20 19:54:36;1122411.00;3.74;1950.55;0.00;0.00;0.62;;;;;25.40;1.00;;;;;;2271564;56;3642;-86
2022/07/20 19:57:03;504294.00;1.68;869.22;0.00;0.00;0.62;;;;;25.10;2.50;;;;;;2271376;56;3813;-89
2022/07/20 20:02:00;702624.00;2.34;1211.79;1344.00;0.00;2.95;;;;;24.90;2.50;;;;;;2258070;61;1519;-88
2022/07/20 20:04:27;625061.00;2.08;1077.51;67937.00;0.23;118.20;;;;;24.90;3.60;;;;;;2268941;56;3769;-88
2022/07/20 20:06:54;711150.00;2.37;1226.58;32408.00;0.11;56.75;;;;;25.20;2.10;;;;;;2263991;56;3809;-89
2022/07/20 20:11:57;232006.00;0.77;401.00;0.00;0.00;0.62;;;;;25.40;1.80;;;;;;2263292;56;3658;-88
2022/07/20 20:14:24;404495.00;1.35;697.53;73555.00;0.25;127.90;;;;;25.50;1.60;;;;;;2266257;56;3804;-90
2022/07/20 20:16:53;666225.00;2.22;1148.72;67966.00;0.23;118.25;;;;;25.60;1.00;;;;;;2264444;61;1686;-89
2022/07/20 20:19:20;454155.00;1.51;782.93;25426.00;0.08;44.67;;;;;25.60;1.70;;;;;;2264359;61;1995;-88
2022/07/20 20:21:47;1269510.00;4.23;2216.41;129234.00;0.43;224.01;;;;;25.80;1.40;;;;;;2264468;61;1451;-88
2022/07/20 20:24:14;1039672.00;3.47;1802.86;91838.00;0.31;159.48;;;;;25.80;1.00;;;;;;2264434;61;1022;-89
2022/07/20 20:26:41;1355218.00;4.52;2373.52;79624.00;0.27;138.39;;;;;25.60;1.90;;;;;;2264434;61;1022;-87
2022/07/20 20:29:10;1639250.00;5.46;2907.99;68356.00;0.23;118.92;;;;;25.70;1.00;;;;;;2264351;61;2238;-88
2022/07/20 20:31:37;1822700.00;6.08;3266.40;105265.00;0.35;182.66;;;;;25.60;1.20;;;;;;2264342;61;1270;-88
2022/07/20 20:34:04;1350313.00;4.50;2364.48;176054.00;0.59;304.69;;;;;25.40;1.00;;;;;;2264382;61;1435;-87
2022/07/20 20:36:32;1421665.00;4.74;2496.57;149570.00;0.50;259.07;;;;;25.50;1.00;;;;;;2264433;61;952;-88
2022/07/20 20:38:59;1408867.00;4.70;2472.78;152171.00;0.51;263.55;;;;;25.70;1.00;;;;;;2264427;61;931;-89
2022/07/20 20:41:26;1043420.00;3.48;1809.53;113966.00;0.38;197.67;;;;;25.60;1.00;;;;;;2264397;61;1932;-88
2022/07/20 20:43:53;622302.00;2.07;1072.74;78524.00;0.26;136.49;;;;;25.50;1.00;;;;;;2272222;41;3647;-87
2022/07/20 20:46:21;440635.00;1.47;759.67;67985.00;0.23;118.28;;;;;25.50;1.00;;;;;;2264403;61;1030;-88
2022/07/20 20:48:48;289068.00;0.96;499.13;65981.00;0.22;114.81;;;;;25.60;1.00;;;;;;2264389;61;1648;-88
2022/07/20 20:51:15;423636.00;1.41;730.44;75012.00;0.25;130.42;;;;;25.80;1.00;;;;;;2264375;61;1518;-86